createdAt,value
2023-04-11T00:02:00.839Z,48.90
2023-04-11T00:04:39.488Z,48.90
2023-04-11T00:07:11.412Z,49.00
2023-04-11T00:09:46.805Z,49.10
2023-04-11T00:12:22.793Z,49.10
2023-04-11T00:14:53.954Z,49.10
2023-04-11T00:17:23.898Z,49.10
2023-04-11T00:19:53.381Z,48.90
2023-04-11T00:22:24.103Z,48.80
2023-04-11T00:24:53.718Z,48.90
2023-04-11T00:27:22.101Z,49.00
2023-04-11T00:29:50.391Z,49.00
2023-04-11T00:32:18.663Z,49.00
2023-04-11T00:34:48.893Z,48.90
2023-04-11T00:37:17.761Z,48.90
2023-04-11T00:39:50.333Z,49.00
2023-04-11T00:42:20.572Z,49.00
2023-04-11T00:44:48.861Z,48.90
2023-04-11T00:47:17.223Z,49.10
2023-04-11T00:49:45.834Z,49.10
2023-04-11T00:52:14.116Z,49.10
2023-04-11T00:54:44.643Z,49.20
2023-04-11T00:57:20.228Z,49.20
2023-04-11T00:59:53.973Z,49.20
2023-04-11T01:02:25.080Z,49.50
2023-04-11T01:05:00.984Z,49.40
2023-04-11T01:07:36.996Z,49.40
2023-04-11T01:10:09.071Z,49.40
2023-04-11T01:12:43.865Z,49.40
2023-04-11T01:15:18.974Z,49.60
2023-04-11T01:17:53.152Z,49.60
2023-04-11T01:20:24.718Z,49.50
2023-04-11T01:22:53.933Z,49.40
2023-04-11T01:25:27.098Z,49.40
2023-04-11T01:27:58.101Z,49.40
2023-04-11T01:30:29.379Z,49.70
2023-04-11T01:33:07.436Z,49.60
2023-04-11T01:35:47.222Z,49.60
2023-04-11T01:38:19.081Z,49.60
2023-04-11T01:40:58.213Z,49.70
2023-04-11T01:43:32.853Z,49.40
2023-04-11T01:46:08.059Z,49.50
2023-04-11T01:48:38.901Z,49.50
2023-04-11T01:51:08.404Z,49.40
2023-04-11T01:53:36.687Z,49.40
2023-04-11T01:56:07.360Z,49.50
2023-04-11T01:58:36.249Z,49.40
2023-04-11T02:01:06.330Z,49.50
2023-04-11T02:03:34.790Z,49.60
2023-04-11T02:06:03.337Z,49.60
2023-04-11T02:08:33.914Z,49.70
2023-04-11T02:11:07.955Z,49.80
2023-04-11T02:13:36.442Z,49.80
2023-04-11T02:16:11.793Z,49.80
2023-04-11T02:18:58.887Z,49.90
2023-04-11T02:21:28.229Z,49.70
2023-04-11T02:24:06.264Z,50.00
2023-04-11T02:26:46.116Z,50.00
2023-04-11T02:29:20.941Z,50.20
2023-04-11T02:31:58.114Z,50.10
2023-04-11T02:34:43.641Z,50.70
2023-04-11T02:37:20.967Z,50.20
2023-04-11T02:39:49.991Z,50.40
2023-04-11T02:42:34.569Z,50.20
2023-04-11T02:45:14.954Z,50.20
2023-04-11T02:47:47.506Z,49.90
2023-04-11T02:50:26.434Z,50.30
2023-04-11T02:53:01.114Z,50.00
2023-04-11T02:55:33.493Z,50.10
2023-04-11T02:58:12.661Z,50.50
2023-04-11T03:00:52.796Z,50.20
2023-04-11T03:03:26.583Z,50.30
2023-04-11T03:06:05.160Z,50.10
2023-04-11T03:08:45.483Z,50.10
2023-04-11T03:11:20.337Z,50.10
2023-04-11T03:13:55.793Z,49.90
2023-04-11T03:16:24.109Z,50.00
2023-04-11T03:18:52.324Z,49.80
2023-04-11T03:21:20.827Z,49.70
2023-04-11T03:23:50.010Z,49.50
2023-04-11T03:26:19.035Z,49.50
2023-04-11T03:28:51.222Z,49.50
2023-04-11T03:31:21.415Z,49.50
2023-04-11T03:33:51.626Z,49.40
2023-04-11T03:36:19.828Z,49.60
2023-04-11T03:38:50.765Z,49.40
2023-04-11T03:41:21.112Z,49.40
2023-04-11T03:43:51.545Z,49.50
2023-04-11T03:46:21.832Z,49.40
2023-04-11T03:49:02.007Z,49.50
2023-04-11T03:51:41.243Z,49.70
2023-04-11T03:54:22.772Z,49.70
2023-04-11T03:57:03.937Z,49.50
2023-04-11T03:59:43.719Z,49.80
2023-04-11T04:02:24.204Z,49.70
2023-04-11T04:04:59.984Z,49.90
2023-04-11T04:07:43.808Z,49.70
2023-04-11T04:10:25.673Z,49.50
2023-04-11T04:12:56.318Z,49.70
2023-04-11T04:15:38.704Z,49.80
2023-04-11T04:21:21.573Z,50.40
2023-04-11T04:23:56.775Z,50.60
2023-04-11T04:26:39.845Z,50.70
2023-04-11T04:29:34.254Z,50.70
2023-04-11T04:32:13.495Z,51.00
2023-04-11T04:34:57.869Z,51.10
2023-04-11T04:40:50.591Z,50.90
2023-04-11T04:43:24.783Z,51.10
2023-04-11T04:46:15.772Z,51.10
2023-04-11T04:48:49.898Z,51.20
2023-04-11T04:51:20.505Z,51.30
2023-04-11T04:53:50.166Z,51.50
2023-04-11T04:56:18.384Z,51.70
2023-04-11T04:58:48.653Z,51.80
2023-04-11T05:01:18.701Z,52.00
2023-04-11T05:03:58.984Z,52.20
2023-04-11T05:06:41.295Z,52.60
2023-04-11T05:09:09.815Z,52.80
2023-04-11T05:11:38.053Z,52.80
2023-04-11T05:14:09.688Z,53.00
2023-04-11T05:16:43.376Z,53.40
2023-04-11T05:19:13.008Z,53.50
2023-04-11T05:21:45.378Z,54.00
2023-04-11T05:24:13.708Z,54.20
2023-04-11T05:26:41.972Z,54.40
2023-04-11T05:29:12.686Z,55.30
2023-04-11T05:31:40.886Z,54.80
2023-04-11T05:34:09.311Z,55.20
2023-04-11T05:36:39.146Z,55.30
2023-04-11T05:39:07.257Z,55.30
2023-04-11T05:41:35.555Z,55.50
2023-04-11T05:44:05.188Z,55.50
2023-04-11T05:46:37.561Z,55.60
2023-04-11T05:49:09.188Z,55.70
2023-04-11T05:51:42.095Z,55.90
2023-04-11T05:54:15.687Z,56.00
2023-04-11T05:57:02.474Z,56.20
2023-04-11T06:00:20.857Z,56.10
2023-04-11T06:10:44.230Z,56.80
2023-04-11T06:13:13.054Z,56.60
2023-04-11T06:15:57.267Z,56.80
2023-04-11T06:22:26.365Z,57.10
2023-04-11T07:08:06.758Z,58.50
2023-04-11T07:10:37.112Z,59.30
2023-04-11T07:13:21.445Z,59.80
2023-04-11T07:16:00.239Z,60.30
2023-04-11T07:18:32.672Z,60.90
2023-04-11T07:21:10.402Z,61.90
2023-04-11T07:23:46.723Z,62.30
2023-04-11T07:26:23.781Z,62.50
2023-04-11T07:29:14.361Z,63.20
2023-04-11T07:32:00.862Z,63.00
2023-04-11T07:34:36.004Z,63.20
2023-04-11T07:37:12.862Z,63.70
2023-04-11T07:39:52.744Z,64.10
2023-04-11T07:42:26.746Z,63.90
2023-04-11T07:44:58.767Z,64.10
2023-04-11T07:47:40.621Z,64.40
2023-04-11T07:50:12.364Z,64.20
2023-04-11T07:53:13.019Z,64.30
2023-04-11T07:55:53.252Z,64.50
2023-04-11T07:58:22.401Z,64.60
2023-04-11T08:00:56.949Z,64.40
2023-04-11T08:03:34.877Z,65.00
2023-04-11T08:06:08.466Z,65.00
2023-04-11T08:08:41.487Z,64.90
2023-04-11T08:11:20.275Z,65.20
2023-04-11T08:14:05.524Z,65.10
2023-04-11T08:17:03.273Z,65.30
2023-04-11T08:19:46.828Z,65.30
2023-04-11T08:22:59.605Z,65.40
2023-04-11T08:29:41.605Z,65.00
2023-04-11T08:32:38.741Z,65.00
2023-04-11T08:35:41.821Z,64.90
2023-04-11T08:41:33.224Z,64.90
2023-04-11T08:44:20.820Z,64.60
2023-04-11T08:47:04.372Z,64.20
2023-04-11T08:49:40.294Z,64.40
2023-04-11T08:52:45.287Z,64.10
2023-04-11T08:58:10.686Z,64.20
2023-04-11T09:00:49.036Z,63.80
2023-04-11T09:03:24.154Z,63.80
2023-04-11T09:05:52.875Z,64.00
2023-04-11T09:08:23.712Z,64.20
2023-04-11T09:11:12.134Z,64.70
2023-04-11T09:18:09.798Z,64.80
2023-04-11T09:21:26.903Z,64.90
2023-04-11T09:24:37.316Z,65.30
2023-04-11T09:42:56.980Z,64.80
2023-04-11T09:45:32.271Z,64.60
2023-04-11T09:57:18.571Z,64.20
2023-04-11T10:00:36.715Z,64.00
2023-04-11T10:03:25.590Z,63.80
2023-04-11T10:07:39.854Z,63.50
2023-04-11T10:10:09.143Z,63.10
2023-04-11T10:17:57.166Z,62.60
2023-04-11T10:20:50.614Z,61.80
2023-04-11T10:23:19.173Z,61.50
2023-04-11T10:25:59.182Z,61.80
2023-04-11T10:28:48.361Z,60.00
2023-04-11T10:31:47.133Z,59.60
2023-04-11T10:34:17.930Z,59.30
2023-04-11T10:37:15.238Z,59.50
2023-04-11T10:40:19.547Z,58.90
2023-04-11T10:42:55.043Z,58.70
2023-04-11T10:45:39.935Z,58.60
2023-04-11T10:48:25.683Z,58.40
2023-04-11T10:50:58.319Z,58.30
2023-04-11T10:53:55.461Z,58.30
2023-04-11T10:57:01.167Z,57.30
2023-04-11T11:00:16.365Z,56.60
2023-04-11T11:02:53.115Z,56.10
2023-04-11T11:13:43.225Z,56.90
2023-04-11T11:32:21.607Z,66.60
2023-04-11T12:12:26.787Z,67.10
2023-04-11T12:18:37.154Z,68.70
2023-04-11T12:30:11.173Z,67.50
2023-04-11T12:32:53.689Z,64.50
2023-04-11T12:35:28.480Z,64.50
2023-04-11T12:37:57.302Z,63.80
2023-04-11T12:40:30.365Z,60.40
2023-04-11T12:43:22.249Z,58.10
2023-04-11T12:45:57.781Z,56.30
2023-04-11T12:49:07.434Z,56.40
2023-04-11T12:51:36.179Z,55.50
2023-04-11T12:54:08.073Z,56.40
2023-04-11T12:56:36.813Z,55.00
2023-04-11T12:59:05.164Z,54.60
2023-04-11T13:01:33.655Z,52.90
2023-04-11T13:07:01.919Z,52.30
2023-04-11T13:12:48.085Z,52.10
2023-04-11T13:15:38.846Z,52.30
2023-04-11T13:21:21.805Z,50.90
2023-04-11T13:24:00.013Z,51.40
2023-04-11T13:26:34.315Z,51.40
2023-04-11T13:29:11.678Z,51.80
2023-04-11T13:31:55.161Z,52.20
2023-04-11T13:34:32.869Z,52.50
2023-04-11T13:37:07.327Z,52.10
2023-04-11T13:39:53.843Z,51.60
2023-04-11T13:42:55.997Z,51.50
2023-04-11T13:46:09.184Z,51.70
2023-04-11T14:03:44.554Z,50.60
2023-04-11T14:13:48.342Z,51.30
2023-04-11T14:16:17.348Z,51.70
2023-04-11T14:19:02.462Z,51.90
2023-04-11T14:21:40.620Z,52.30
2023-04-11T15:39:51.441Z,52.00
2023-04-11T15:42:26.728Z,52.10
2023-04-11T15:45:09.192Z,52.80
2023-04-11T15:47:39.159Z,53.00
2023-04-11T15:50:08.579Z,53.10
2023-04-11T15:52:37.454Z,52.60
2023-04-11T15:55:09.423Z,52.60
2023-04-11T15:57:51.008Z,51.70
2023-04-11T16:00:26.629Z,50.80
2023-04-11T16:03:15.364Z,50.30
2023-04-11T16:05:47.390Z,50.00
2023-04-11T16:08:24.779Z,50.00
2023-04-11T16:10:55.505Z,49.50
2023-04-11T16:13:24.039Z,49.70
2023-04-11T16:15:52.795Z,49.90
2023-04-11T16:18:26.278Z,49.90
2023-04-11T16:20:57.008Z,50.00
2023-04-11T16:23:28.680Z,50.10
2023-04-11T16:25:58.700Z,50.30
2023-04-11T16:28:27.032Z,50.60
2023-04-11T16:30:58.593Z,50.90
2023-04-11T16:33:27.329Z,51.20
2023-04-11T16:35:55.829Z,51.40
2023-04-11T16:38:25.595Z,51.40
2023-04-11T16:40:54.471Z,51.70
2023-04-11T16:43:41.194Z,51.60
2023-04-11T16:46:14.384Z,51.50
2023-04-11T16:48:44.105Z,51.50
2023-04-11T16:51:16.161Z,51.60
2023-04-11T16:53:46.186Z,51.50
2023-04-11T16:56:15.026Z,51.70
2023-04-11T16:58:45.472Z,52.00
2023-04-11T17:01:14.426Z,52.50
2023-04-11T17:03:44.339Z,52.80
2023-04-11T17:06:14.750Z,53.10
2023-04-11T17:08:44.397Z,52.60
2023-04-11T17:11:14.297Z,51.80
2023-04-11T17:13:45.946Z,51.90
2023-04-11T17:16:14.657Z,51.60
2023-04-11T17:18:43.136Z,51.50
2023-04-11T17:21:11.447Z,51.50
2023-04-11T17:23:43.326Z,51.50
2023-04-11T17:26:12.466Z,51.40
2023-04-11T17:28:41.234Z,51.50
2023-04-11T17:31:15.235Z,51.50
2023-04-11T17:33:44.200Z,51.60
2023-04-11T17:36:14.706Z,51.70
2023-04-11T17:38:43.884Z,51.60
2023-04-11T17:41:15.365Z,51.80
2023-04-11T17:43:44.531Z,51.80
2023-04-11T17:46:14.716Z,51.80
2023-04-11T17:48:45.109Z,51.80
2023-04-11T17:51:14.409Z,51.80
2023-04-11T17:53:44.005Z,52.10
2023-04-11T17:56:12.650Z,52.30
2023-04-11T17:58:44.727Z,52.10
2023-04-11T18:01:32.793Z,52.00
2023-04-11T18:04:07.711Z,52.20
2023-04-11T18:06:36.182Z,52.00
2023-04-11T18:09:05.877Z,52.20
2023-04-11T18:11:34.343Z,52.20
2023-04-11T18:14:04.955Z,52.20
2023-04-11T18:16:35.846Z,52.40
2023-04-11T18:19:04.440Z,52.50
2023-04-11T18:21:32.705Z,52.40
2023-04-11T18:24:01.220Z,52.70
2023-04-11T18:26:33.464Z,52.60
2023-04-11T18:29:12.750Z,52.80
2023-04-11T18:31:46.242Z,53.00
2023-04-11T18:34:14.721Z,53.10
2023-04-11T18:37:23.746Z,53.20
2023-04-11T18:39:52.682Z,53.20
2023-04-11T18:42:21.177Z,53.40
2023-04-11T18:44:50.443Z,53.60
2023-04-11T18:47:45.016Z,53.70
2023-04-11T18:50:14.003Z,53.90
2023-04-11T18:52:43.710Z,54.40
2023-04-11T18:55:18.529Z,53.70
2023-04-11T18:57:48.880Z,53.70
2023-04-11T19:00:19.480Z,53.80
2023-04-11T19:02:54.898Z,54.00
2023-04-11T19:05:25.502Z,54.20
2023-04-11T19:07:54.073Z,54.50
2023-04-11T19:10:41.261Z,54.90
2023-04-11T19:13:12.062Z,55.40
2023-04-11T19:15:44.943Z,55.70
2023-04-11T19:18:14.995Z,55.60
2023-04-11T19:20:46.589Z,56.10
2023-04-11T19:23:16.055Z,55.90
2023-04-11T19:25:46.597Z,56.40
2023-04-11T19:28:22.572Z,56.50
2023-04-11T19:30:51.332Z,56.60
2023-04-11T19:33:47.468Z,57.20
2023-04-11T19:36:15.992Z,56.60
2023-04-11T19:38:44.374Z,56.30
2023-04-11T19:41:14.032Z,56.30
2023-04-11T19:43:50.078Z,56.30
2023-04-11T19:46:19.120Z,56.20
2023-04-11T19:48:49.012Z,57.00
2023-04-11T19:51:19.544Z,57.00
2023-04-11T19:53:50.507Z,57.00
2023-04-11T19:56:18.728Z,57.10
2023-04-11T19:58:50.010Z,57.30
2023-04-11T20:01:18.774Z,57.10
2023-04-11T20:03:53.684Z,57.40
2023-04-11T20:06:22.749Z,57.40
2023-04-11T20:08:51.165Z,57.30
2023-04-11T20:11:22.041Z,57.40
2023-04-11T20:13:50.276Z,57.50
2023-04-11T20:19:06.811Z,57.70
2023-04-11T20:21:35.435Z,57.80
2023-04-11T20:24:04.182Z,57.80
2023-04-11T20:26:44.489Z,58.10
2023-04-11T20:29:21.080Z,57.90
2023-04-11T20:31:56.912Z,58.20
2023-04-11T20:38:56.256Z,58.10
2023-04-11T20:41:47.458Z,57.90
2023-04-11T20:44:33.002Z,58.30
2023-04-11T20:47:03.762Z,58.40
2023-04-11T20:49:39.578Z,58.30
2023-04-11T20:52:09.084Z,58.30
2023-04-11T20:54:42.424Z,58.30
2023-04-11T20:57:30.484Z,58.40
2023-04-11T20:59:59.673Z,58.60
2023-04-11T21:02:35.055Z,58.30
2023-04-11T21:05:08.936Z,58.60
2023-04-11T21:07:45.679Z,58.50
2023-04-11T21:10:22.875Z,58.30
2023-04-11T21:12:56.185Z,58.50
2023-04-11T21:18:09.917Z,58.70
2023-04-11T21:21:01.210Z,58.50
2023-04-11T21:31:59.933Z,58.50
2023-04-11T21:34:28.855Z,58.50
2023-04-11T21:37:02.635Z,58.60
2023-04-11T21:39:31.841Z,58.60
2023-04-11T21:42:02.024Z,59.00
2023-04-11T21:44:40.361Z,58.80
2023-04-11T21:47:10.845Z,58.70
2023-04-11T21:49:40.428Z,58.90
2023-04-11T21:52:12.025Z,58.90
2023-04-11T21:54:40.378Z,59.10
2023-04-11T21:57:11.320Z,59.00
2023-04-11T21:59:51.507Z,59.00
2023-04-11T22:02:25.906Z,59.30
2023-04-11T22:05:06.347Z,59.40
2023-04-11T22:07:42.196Z,59.40
2023-04-11T22:10:17.384Z,59.50
2023-04-11T22:12:49.682Z,59.70
2023-04-11T22:15:20.003Z,59.90
2023-04-11T22:17:51.079Z,59.80
2023-04-11T22:20:21.109Z,59.90
2023-04-11T22:22:49.605Z,60.00
2023-04-11T22:25:18.659Z,60.00
2023-04-11T22:27:49.060Z,59.90
2023-04-11T22:30:17.963Z,59.90
2023-04-11T22:32:51.710Z,60.10
2023-04-11T22:35:22.750Z,60.00
2023-04-11T22:37:54.491Z,60.10
2023-04-11T22:40:23.263Z,60.30
2023-04-11T22:42:52.224Z,60.30
2023-04-11T22:45:24.522Z,60.20
2023-04-11T22:47:57.004Z,60.30
2023-04-11T22:50:28.559Z,60.40
2023-04-11T22:53:00.890Z,60.60
2023-04-11T22:55:29.383Z,60.50
2023-04-11T22:57:57.583Z,60.90
2023-04-11T23:00:26.414Z,60.80
2023-04-11T23:02:56.923Z,61.70
2023-04-11T23:05:25.873Z,61.00
2023-04-11T23:07:54.673Z,61.10
2023-04-11T23:10:30.141Z,61.20
2023-04-11T23:13:03.944Z,61.20
2023-04-11T23:15:32.976Z,61.50
2023-04-11T23:18:10.345Z,61.50
2023-04-11T23:20:39.029Z,61.30
2023-04-11T23:23:07.570Z,61.40
2023-04-11T23:25:40.877Z,61.60
2023-04-11T23:28:09.461Z,61.50
2023-04-11T23:30:41.956Z,61.80
2023-04-11T23:33:11.704Z,61.80
2023-04-11T23:35:43.596Z,61.70
2023-04-11T23:38:18.818Z,62.10
2023-04-11T23:40:50.737Z,61.70
2023-04-11T23:43:29.335Z,62.10
2023-04-11T23:46:41.362Z,61.70
2023-04-11T23:51:56.602Z,61.80
2023-04-11T23:54:30.022Z,61.60
2023-04-11T23:57:01.617Z,61.60
2023-04-11T23:59:30.005Z,61.90
